Time;durP1;ratioP1;P1;durP2;ratioP2;P2;SDS_P1;SDS_P2;PMS_P1;PMS_P2;Temp;Humidity;BMP_temperature;BMP_pressure;BME280_temperature;BME280_humidity;BME280_pressure;Samples;Min_cycle;Max_cycle;Signal;HPM_P1;HPM_P2
2024/04/10 00:01:06;;;;;;;;;;;13.70;43.50;;;;;;22719169;26;19936;-58
2024/04/10 00:11:07;;;;;;;;;;;13.60;44.40;;;;;;22719977;26;19928;-59
2024/04/10 00:21:08;;;;;;;;;;;13.50;43.90;;;;;;22718079;26;19932;-59
2024/04/10 00:31:09;;;;;;;;;;;13.30;44.00;;;;;;22722498;26;20372;-58
2024/04/10 00:41:10;;;;;;;;;;;13.20;44.00;;;;;;22732744;26;19939;-59
2024/04/10 00:51:12;;;;;;;;;;;13.20;44.50;;;;;;22731378;26;19954;-58
2024/04/10 01:01:14;;;;;;;;;;;13.20;43.80;;;;;;22731159;26;19928;-59
2024/04/10 01:11:18;;;;;;;;;;;13.20;44.00;;;;;;22731721;26;19928;-58
2024/04/10 01:21:19;;;;;;;;;;;13.10;44.10;;;;;;22731656;26;20366;-58
2024/04/10 01:31:26;;;;;;;;;;;13.00;44.20;;;;;;22730962;26;20353;-59
2024/04/10 01:41:28;;;;;;;;;;;12.90;44.40;;;;;;22729116;26;19934;-58
2024/04/10 01:51:29;;;;;;;;;;;12.80;44.50;;;;;;22728226;26;20382;-59
2024/04/10 02:01:30;;;;;;;;;;;12.70;45.90;;;;;;22727691;26;20284;-58
2024/04/10 02:11:37;;;;;;;;;;;12.60;48.20;;;;;;22727421;26;19935;-58
2024/04/10 02:21:38;;;;;;;;;;;12.30;49.60;;;;;;22728462;26;20035;-59
2024/04/10 02:31:39;;;;;;;;;;;12.10;50.40;;;;;;22726286;26;19934;-58
2024/04/10 02:41:40;;;;;;;;;;;11.90;51.00;;;;;;22726867;26;19928;-58
2024/04/10 02:51:41;;;;;;;;;;;11.70;51.70;;;;;;22725904;26;19940;-59
2024/04/10 03:01:42;;;;;;;;;;;11.60;52.10;;;;;;22725436;26;19995;-57
2024/04/10 03:11:43;;;;;;;;;;;11.30;52.50;;;;;;22725652;26;19928;-58
2024/04/10 03:21:44;;;;;;;;;;;11.20;53.60;;;;;;22725613;26;19927;-57
2024/04/10 03:31:45;;;;;;;;;;;11.00;54.00;;;;;;22723861;26;20357;-59
2024/04/10 03:41:46;;;;;;;;;;;11.00;54.30;;;;;;22722039;26;20326;-58
2024/04/10 03:51:47;;;;;;;;;;;10.90;54.80;;;;;;22721495;26;19936;-57
2024/04/10 04:01:48;;;;;;;;;;;10.80;54.60;;;;;;22721213;26;19981;-58
2024/04/10 04:11:50;;;;;;;;;;;10.80;55.10;;;;;;22718684;26;20349;-58
2024/04/10 04:21:51;;;;;;;;;;;10.80;54.90;;;;;;22714707;26;19948;-59
2024/04/10 04:31:52;;;;;;;;;;;10.80;54.70;;;;;;22714412;26;19956;-58
2024/04/10 04:41:55;;;;;;;;;;;10.70;54.60;;;;;;22714983;26;20389;-57
2024/04/10 04:51:58;;;;;;;;;;;10.70;54.60;;;;;;22716248;26;19934;-59
2024/04/10 05:02:00;;;;;;;;;;;10.70;54.80;;;;;;22715140;26;20441;-58
2024/04/10 05:12:02;;;;;;;;;;;10.70;55.30;;;;;;22714362;26;19928;-58
2024/04/10 05:22:03;;;;;;;;;;;10.60;55.40;;;;;;22729238;26;19928;-63
2024/04/10 05:32:04;;;;;;;;;;;10.60;56.00;;;;;;22695947;26;20332;-58
2024/04/10 05:42:06;;;;;;;;;;;10.60;56.10;;;;;;22727580;26;20294;-58
2024/04/10 05:52:07;;;;;;;;;;;10.60;55.90;;;;;;22727873;26;20319;-60
2024/04/10 06:02:09;;;;;;;;;;;10.60;56.10;;;;;;22726846;26;20001;-58
2024/04/10 06:12:10;;;;;;;;;;;10.60;55.80;;;;;;22726175;26;19929;-58
2024/04/10 06:22:11;;;;;;;;;;;10.40;56.20;;;;;;22725448;26;20376;-59
2024/04/10 06:32:12;;;;;;;;;;;10.40;56.20;;;;;;22724638;26;20225;-60
2024/04/10 06:42:15;;;;;;;;;;;10.40;55.90;;;;;;22724180;26;19936;-59
2024/04/10 06:52:16;;;;;;;;;;;10.50;55.80;;;;;;22725228;26;19928;-61
2024/04/10 07:02:17;;;;;;;;;;;10.80;55.40;;;;;;22721689;26;19935;-59
2024/04/10 07:12:18;;;;;;;;;;;11.30;53.80;;;;;;22721599;26;20378;-59
2024/04/10 07:22:19;;;;;;;;;;;11.70;52.50;;;;;;22720960;26;19936;-59
2024/04/10 07:32:20;;;;;;;;;;;12.00;52.20;;;;;;22719455;26;20408;-59
2024/04/10 07:42:22;;;;;;;;;;;13.30;57.20;;;;;;22714390;26;20256;-57
2024/04/10 07:52:24;;;;;;;;;;;13.20;50.70;;;;;;22716898;26;20353;-55
2024/04/10 08:02:25;;;;;;;;;;;13.20;47.50;;;;;;22718502;26;19928;-55
2024/04/10 08:13:52;;;;;;;;;;;13.20;46.70;;;;;;22951007;25;19927;-63
2024/04/10 08:23:53;;;;;;;;;;;13.70;46.10;;;;;;22950851;25;19935;-60
2024/04/10 08:33:54;;;;;;;;;;;13.90;44.50;;;;;;22949259;25;20365;-56
2024/04/10 08:43:55;;;;;;;;;;;13.90;44.60;;;;;;22949731;25;20361;-56
2024/04/10 08:53:58;;;;;;;;;;;14.60;43.20;;;;;;22947478;25;19938;-57
2024/04/10 09:03:59;;;;;;;;;;;;;;;;;;22947421;25;19927;-55
2024/04/10 09:14:03;;;;;;;;;;;14.80;42.60;;;;;;22947566;25;19956;-58
2024/04/10 09:24:04;;;;;;;;;;;14.90;42.40;;;;;;22888359;25;20278;-56
2024/04/10 09:34:05;;;;;;;;;;;;;;;;;;22880161;25;19939;-57
2024/04/10 09:44:08;;;;;;;;;;;15.30;41.40;;;;;;22878820;25;19935;-57
2024/04/10 09:54:10;;;;;;;;;;;15.20;42.40;;;;;;22877242;25;20359;-56
2024/04/10 10:04:11;;;;;;;;;;;15.40;42.60;;;;;;22876492;26;19928;-56
2024/04/10 10:14:14;;;;;;;;;;;15.60;40.50;;;;;;22877414;25;19928;-55
2024/04/10 10:24:15;;;;;;;;;;;15.70;42.70;;;;;;22874301;25;20331;-55
2024/04/10 10:34:22;;;;;;;;;;;16.10;56.80;;;;;;22874706;25;19927;-57
2024/04/10 10:44:23;;;;;;;;;;;16.30;41.40;;;;;;22875788;25;19927;-56
2024/04/10 10:54:24;;;;;;;;;;;16.40;41.10;;;;;;22865215;25;19935;-57
2024/04/10 11:04:25;;;;;;;;;;;16.70;39.40;;;;;;22871063;25;20368;-56
2024/04/10 11:14:26;;;;;;;;;;;16.50;36.80;;;;;;22875318;26;19939;-56
2024/04/10 11:24:26;;;;;;;;;;;16.70;36.70;;;;;;22875003;26;20579;-56
2024/04/10 11:34:27;;;;;;;;;;;16.70;36.50;;;;;;22874998;25;20421;-57
2024/04/10 11:44:28;;;;;;;;;;;17.00;36.70;;;;;;22872961;25;19955;-57
2024/04/10 11:54:29;;;;;;;;;;;17.30;37.90;;;;;;22872685;26;19963;-56
2024/04/10 12:04:30;;;;;;;;;;;17.60;36.50;;;;;;22872641;25;19928;-56
2024/04/10 12:14:30;;;;;;;;;;;17.60;37.20;;;;;;22871833;25;19995;-56
2024/04/10 12:24:36;;;;;;;;;;;;;;;;;;22871133;25;19946;-57
2024/04/10 12:34:37;;;;;;;;;;;19.20;33.70;;;;;;22869732;25;19934;-56
2024/04/10 12:44:38;;;;;;;;;;;18.20;35.30;;;;;;22870045;25;19927;-57
2024/04/10 12:54:40;;;;;;;;;;;18.30;34.60;;;;;;22874177;26;19927;-56
2024/04/10 13:04:41;;;;;;;;;;;18.50;34.80;;;;;;22882811;25;20016;-56
2024/04/10 13:14:42;;;;;;;;;;;18.50;34.40;;;;;;22882862;25;19936;-57
2024/04/10 13:24:43;;;;;;;;;;;18.40;34.40;;;;;;22882885;25;19991;-58
2024/04/10 13:34:47;;;;;;;;;;;18.50;34.40;;;;;;22881079;26;19959;-57
2024/04/10 13:44:48;;;;;;;;;;;18.70;35.60;;;;;;22881295;26;19927;-56
2024/04/10 13:54:48;;;;;;;;;;;18.70;34.80;;;;;;22879604;25;19952;-56
2024/04/10 14:04:50;;;;;;;;;;;18.90;36.00;;;;;;22878280;25;19936;-57
2024/04/10 14:14:50;;;;;;;;;;;19.20;35.40;;;;;;22877581;26;19931;-57
2024/04/10 14:24:51;;;;;;;;;;;19.30;35.90;;;;;;22878552;25;20443;-57
2024/04/10 14:34:52;;;;;;;;;;;19.30;35.60;;;;;;22879742;25;19995;-56
2024/04/10 14:44:53;;;;;;;;;;;19.30;35.80;;;;;;22877491;25;19931;-57
2024/04/10 14:54:54;;;;;;;;;;;19.40;36.00;;;;;;22876415;25;19931;-57
2024/04/10 15:04:55;;;;;;;;;;;19.50;37.00;;;;;;22876165;25;19935;-56
2024/04/10 15:14:56;;;;;;;;;;;19.60;36.40;;;;;;22874403;25;19929;-57
2024/04/10 15:24:57;;;;;;;;;;;19.70;36.60;;;;;;22875286;25;19927;-56
2024/04/10 15:34:58;;;;;;;;;;;19.80;37.30;;;;;;22874069;25;19928;-57
2024/04/10 15:44:59;;;;;;;;;;;19.90;37.60;;;;;;22874836;25;19956;-56
2024/04/10 15:55:00;;;;;;;;;;;20.00;37.10;;;;;;22873677;25;19934;-55
2024/04/10 16:05:00;;;;;;;;;;;20.10;37.20;;;;;;22874164;25;19936;-56
2024/04/10 16:15:01;;;;;;;;;;;20.20;37.20;;;;;;22872321;25;19935;-56
2024/04/10 16:25:02;;;;;;;;;;;20.10;38.00;;;;;;22870460;25;20269;-56
2024/04/10 16:35:03;;;;;;;;;;;20.20;38.50;;;;;;22885222;25;19934;-56
2024/04/10 16:45:06;;;;;;;;;;;20.10;38.90;;;;;;22884186;25;19977;-57
2024/04/10 16:55:06;;;;;;;;;;;20.20;38.80;;;;;;22882736;25;20341;-57
2024/04/10 17:05:07;;;;;;;;;;;20.10;39.10;;;;;;22881340;25;19968;-55
2024/04/10 17:15:08;;;;;;;;;;;20.10;39.20;;;;;;22881732;25;19935;-56
2024/04/10 17:25:09;;;;;;;;;;;20.20;39.50;;;;;;22880814;25;19942;-55
2024/04/10 17:35:11;;;;;;;;;;;20.20;39.90;;;;;;22880546;25;19963;-57
2024/04/10 17:45:14;;;;;;;;;;;20.20;40.10;;;;;;22879376;25;20368;-59
2024/04/10 17:55:15;;;;;;;;;;;20.10;40.40;;;;;;22880065;25;19959;-56
2024/04/10 18:05:17;;;;;;;;;;;20.00;40.90;;;;;;22877565;25;19939;-57
2024/04/10 18:15:18;;;;;;;;;;;20.00;41.40;;;;;;22878243;25;20322;-57
2024/04/10 18:25:20;;;;;;;;;;;19.80;42.00;;;;;;22792388;25;19934;-57
2024/04/10 18:35:21;;;;;;;;;;;19.60;42.70;;;;;;22720158;26;19960;-57
2024/04/10 18:45:23;;;;;;;;;;;19.50;42.90;;;;;;22723189;26;20373;-57
2024/04/10 18:55:24;;;;;;;;;;;19.40;42.70;;;;;;22722448;26;20327;-57
2024/04/10 19:05:28;;;;;;;;;;;19.20;42.90;;;;;;22723971;26;20382;-57
2024/04/10 19:15:29;;;;;;;;;;;19.20;43.00;;;;;;22723313;26;19928;-57
2024/04/10 19:25:31;;;;;;;;;;;19.10;43.70;;;;;;22724091;26;19935;-57
2024/04/10 19:35:32;;;;;;;;;;;19.00;43.90;;;;;;23003851;25;19927;-57
2024/04/10 19:45:33;;;;;;;;;;;18.90;44.10;;;;;;23027644;25;19971;-56
2024/04/10 19:55:34;;;;;;;;;;;18.80;44.60;;;;;;23026629;25;19927;-57
2024/04/10 20:05:36;;;;;;;;;;;18.60;45.00;;;;;;23024811;25;19934;-57
2024/04/10 20:15:37;;;;;;;;;;;18.40;45.40;;;;;;23183948;25;20318;-58
2024/04/10 20:25:39;;;;;;;;;;;18.20;45.60;;;;;;23181999;25;19933;-58
2024/04/10 20:35:40;;;;;;;;;;;18.10;45.90;;;;;;23181406;25;19926;-57
2024/04/10 20:46:03;;;;;;;;;;;18.00;45.90;;;;;;23180808;25;19954;-57
2024/04/10 20:56:05;;;;;;;;;;;18.00;45.60;;;;;;23180058;25;19927;-57
2024/04/10 22:28:28;;;;;;;;;;;17.20;47.40;;;;;;23191094;25;19934;-58
2024/04/10 22:38:29;;;;;;;;;;;17.20;47.30;;;;;;23191308;25;20323;-57
2024/04/10 22:48:30;;;;;;;;;;;17.20;46.60;;;;;;23189435;25;19930;-57
2024/04/10 22:58:31;;;;;;;;;;;17.20;46.70;;;;;;23190190;25;20362;-56
2024/04/10 23:08:32;;;;;;;;;;;17.10;47.60;;;;;;23187589;25;19927;-57
2024/04/10 23:18:33;;;;;;;;;;;16.90;47.90;;;;;;23186786;25;19934;-57
2024/04/10 23:28:34;;;;;;;;;;;16.80;48.40;;;;;;23186094;25;19934;-57
2024/04/10 23:38:35;;;;;;;;;;;16.70;48.40;;;;;;23185490;25;20259;-57
2024/04/10 23:48:36;;;;;;;;;;;16.70;48.50;;;;;;23184206;25;19934;-57
2024/04/10 23:58:39;;;;;;;;;;;16.50;48.50;;;;;;23183886;25;19930;-57
